Terminal Aerodrome Forecast
Issued by NWS

Current Version | Previous Version | Text Only | Print | Product List | Glossary Off
Versions: 1 2 3 4 5 6 7 8 9 10 11 12 13 14 15 16

000
FTUS41 KPBZ 301700
TAFHLG
TAF
KHLG 301720Z 3018/3118 21010G17KT P6SM FEW060
     FM310000 19005KT P6SM BKN250
     FM310800 22005KT P6SM -SHRA VCTS OVC030CB
     FM311100 22005KT 2SM SHRA OVC012
     FM311500 22005KT 3SM SHRA OVC010=

USA.gov is the U.S. government's official web portal to all federal, state and local government web resources and services.